createdAt,value
2022-11-16T00:01:09.374Z,41.25
2022-11-16T00:03:37.145Z,37.83
2022-11-16T00:06:05.812Z,39.45
2022-11-16T00:08:35.525Z,42.90
2022-11-16T00:11:07.082Z,37.22
2022-11-16T00:16:02.061Z,40.17
2022-11-16T00:18:31.169Z,35.22
2022-11-16T00:20:59.030Z,36.20
2022-11-16T00:23:26.552Z,39.60
2022-11-16T00:25:54.002Z,34.95
2022-11-16T00:28:21.436Z,34.60
2022-11-16T00:30:48.892Z,33.25
2022-11-16T00:33:16.902Z,36.35
2022-11-16T00:35:45.746Z,36.58
2022-11-16T00:38:13.227Z,33.60
2022-11-16T00:40:40.662Z,34.88
2022-11-16T00:43:08.151Z,34.35
2022-11-16T00:45:35.628Z,39.13
2022-11-16T00:48:03.163Z,39.78
2022-11-16T00:50:30.616Z,36.30
2022-11-16T00:52:59.388Z,37.03
2022-11-16T00:55:26.904Z,38.13
2022-11-16T00:57:54.406Z,39.17
2022-11-16T01:00:22.010Z,36.90
2022-11-16T01:02:49.474Z,36.95
2022-11-16T01:05:17.031Z,39.38
2022-11-16T01:07:44.521Z,35.95
2022-11-16T01:10:14.922Z,37.70
2022-11-16T01:12:41.503Z,39.85
2022-11-16T01:15:10.047Z,39.65
2022-11-16T01:17:37.757Z,38.33
2022-11-16T01:20:06.223Z,40.72
2022-11-16T01:22:35.762Z,42.15
2022-11-16T01:25:03.242Z,35.40
2022-11-16T01:27:32.102Z,37.25
2022-11-16T01:29:59.790Z,40.00
2022-11-16T01:32:27.421Z,36.75
2022-11-16T01:34:54.941Z,37.42
2022-11-16T01:37:22.424Z,35.80
2022-11-16T01:39:49.910Z,35.63
2022-11-16T01:42:18.551Z,37.15
2022-11-16T01:44:57.726Z,36.63
2022-11-16T01:47:25.282Z,34.63
2022-11-16T01:49:54.016Z,39.03
2022-11-16T01:52:23.370Z,34.33
2022-11-16T01:54:52.307Z,35.83
2022-11-16T01:57:23.285Z,37.15
2022-11-16T01:59:52.638Z,37.72
2022-11-16T02:02:21.602Z,35.80
2022-11-16T02:04:50.163Z,36.97
2022-11-16T02:07:21.533Z,38.17
2022-11-16T02:09:54.226Z,38.05
2022-11-16T02:12:36.154Z,35.42
2022-11-16T02:15:08.975Z,37.10
2022-11-16T02:17:41.551Z,34.85
2022-11-16T02:20:25.407Z,35.17
2022-11-16T02:23:02.452Z,35.25
2022-11-16T02:25:33.198Z,34.17
2022-11-16T02:28:16.245Z,34.42
2022-11-16T02:30:47.251Z,32.55
2022-11-16T02:33:17.754Z,34.40
2022-11-16T02:35:47.921Z,36.95
2022-11-16T02:38:17.205Z,32.42
2022-11-16T02:40:47.329Z,31.85
2022-11-16T02:43:18.169Z,31.90
2022-11-16T02:45:49.047Z,31.70
2022-11-16T02:48:18.368Z,34.38
2022-11-16T02:50:47.893Z,32.92
2022-11-16T02:53:16.245Z,32.97
2022-11-16T02:55:43.732Z,31.58
2022-11-16T02:58:12.125Z,35.10
2022-11-16T03:00:43.484Z,31.33
2022-11-16T03:03:23.325Z,34.03
2022-11-16T03:05:52.189Z,35.65
2022-11-16T03:08:21.457Z,36.15
2022-11-16T03:11:10.356Z,37.58
2022-11-16T03:13:38.620Z,37.08
2022-11-16T03:16:08.926Z,33.83
2022-11-16T03:18:39.483Z,38.20
2022-11-16T03:21:10.088Z,37.67
2022-11-16T03:23:37.884Z,41.55
2022-11-16T03:26:07.638Z,38.80
2022-11-16T03:28:37.693Z,39.15
2022-11-16T03:31:07.075Z,39.40
2022-11-16T03:33:37.619Z,39.55
2022-11-16T03:36:10.467Z,43.65
2022-11-16T03:38:39.209Z,40.97
2022-11-16T03:41:07.482Z,42.30
2022-11-16T03:43:35.382Z,44.17
2022-11-16T03:46:02.813Z,45.25
2022-11-16T03:48:33.616Z,41.08
2022-11-16T03:51:01.323Z,44.25
2022-11-16T03:53:30.151Z,42.65
2022-11-16T03:55:57.960Z,41.95
2022-11-16T03:58:25.469Z,48.30
2022-11-16T04:00:52.976Z,47.70
2022-11-16T04:03:20.838Z,55.72
2022-11-16T04:06:07.096Z,53.45
2022-11-16T04:08:53.165Z,50.95
2022-11-16T04:11:38.813Z,52.25
2022-11-16T04:14:24.081Z,48.25
2022-11-16T04:17:08.763Z,47.08
2022-11-16T04:19:57.905Z,55.22
2022-11-16T04:22:44.441Z,50.25
2022-11-16T04:25:15.453Z,53.13
2022-11-16T04:27:59.753Z,51.15
2022-11-16T04:30:47.319Z,54.10
2022-11-16T04:33:32.079Z,55.25
2022-11-16T04:36:17.876Z,54.45
2022-11-16T04:38:47.790Z,57.65
2022-11-16T04:41:30.508Z,55.83
2022-11-16T04:43:58.231Z,63.08
2022-11-16T04:46:43.308Z,60.13
2022-11-16T04:49:10.855Z,61.13
2022-11-16T04:51:38.334Z,61.63
2022-11-16T04:54:05.876Z,61.08
2022-11-16T04:56:34.711Z,64.65
2022-11-16T04:59:02.167Z,64.07
2022-11-16T05:01:43.571Z,61.13
2022-11-16T05:04:11.077Z,65.70
2022-11-16T05:06:38.562Z,68.13
2022-11-16T05:09:06.106Z,68.07
2022-11-16T05:11:34.900Z,65.72
2022-11-16T05:14:02.845Z,73.95
2022-11-16T05:16:30.701Z,68.47
2022-11-16T05:19:15.658Z,64.78
2022-11-16T05:21:43.155Z,72.10
2022-11-16T05:24:28.198Z,71.47
2022-11-16T05:26:57.009Z,73.55
2022-11-16T05:29:24.500Z,77.88
2022-11-16T05:31:51.943Z,75.40
2022-11-16T05:34:19.393Z,67.78
2022-11-16T05:36:46.887Z,69.97
2022-11-16T05:39:14.373Z,76.85
2022-11-16T05:41:41.900Z,74.88
2022-11-16T05:44:10.796Z,74.43
2022-11-16T05:46:38.271Z,74.55
2022-11-16T05:49:07.751Z,76.30
2022-11-16T05:51:35.630Z,71.65
2022-11-16T05:54:03.304Z,72.10
2022-11-16T05:56:31.214Z,70.88
2022-11-16T05:58:58.944Z,77.63
2022-11-16T06:01:27.976Z,74.32
2022-11-16T06:03:55.450Z,74.45
2022-11-16T06:06:22.918Z,72.13
2022-11-16T06:08:50.400Z,68.32
2022-11-16T06:11:17.915Z,73.55
2022-11-16T06:13:45.573Z,72.57
2022-11-16T06:16:13.025Z,70.85
2022-11-16T06:18:42.389Z,70.97
2022-11-16T06:21:10.720Z,74.68
2022-11-16T06:23:38.386Z,76.97
2022-11-16T06:26:06.689Z,84.22
2022-11-16T06:28:34.827Z,73.68
2022-11-16T06:31:02.873Z,81.13
2022-11-16T06:33:33.524Z,79.68
2022-11-16T06:36:02.822Z,76.05
2022-11-16T06:38:30.414Z,78.38
2022-11-16T06:40:58.698Z,82.80
2022-11-16T06:43:26.694Z,82.88
2022-11-16T06:45:55.105Z,86.43
2022-11-16T06:48:22.961Z,75.88
2022-11-16T06:50:50.738Z,76.13
2022-11-16T06:53:20.933Z,84.30
2022-11-16T06:55:51.034Z,86.90
2022-11-16T06:58:18.518Z,77.15
2022-11-16T07:00:45.989Z,85.22
2022-11-16T07:03:13.484Z,88.05
2022-11-16T07:05:41.979Z,88.85
2022-11-16T07:08:09.686Z,83.88
2022-11-16T07:10:39.127Z,79.53
2022-11-16T07:13:06.968Z,91.93
2022-11-16T07:15:34.405Z,92.15
2022-11-16T07:18:05.673Z,92.30
2022-11-16T07:20:33.320Z,84.88
2022-11-16T07:23:01.249Z,90.57
2022-11-16T07:25:28.778Z,81.20
2022-11-16T07:27:58.410Z,94.10
2022-11-16T07:30:26.080Z,86.35
2022-11-16T07:32:57.572Z,85.68
2022-11-16T07:35:25.074Z,90.18
2022-11-16T07:37:52.589Z,78.85
2022-11-16T07:40:20.041Z,83.18
2022-11-16T07:42:47.593Z,84.97
2022-11-16T07:45:16.592Z,84.80
2022-11-16T07:47:44.070Z,86.85
2022-11-16T07:50:11.914Z,78.40
2022-11-16T07:52:39.453Z,82.95
2022-11-16T07:55:07.092Z,81.05
2022-11-16T07:57:34.601Z,74.18
2022-11-16T08:00:02.239Z,83.63
2022-11-16T08:02:31.156Z,72.22
2022-11-16T08:04:58.616Z,79.78
2022-11-16T08:07:26.204Z,80.97
2022-11-16T08:09:53.866Z,73.03
2022-11-16T08:12:21.329Z,82.85
2022-11-16T08:14:48.844Z,70.03
2022-11-16T08:17:16.333Z,69.25
2022-11-16T08:19:45.243Z,76.65
2022-11-16T08:22:12.925Z,76.55
2022-11-16T08:24:40.394Z,75.78
2022-11-16T08:27:07.950Z,72.97
2022-11-16T08:29:35.466Z,72.10
2022-11-16T08:32:02.938Z,71.70
2022-11-16T08:34:30.558Z,70.40
2022-11-16T08:36:59.386Z,70.70
2022-11-16T08:39:26.918Z,70.78
2022-11-16T08:41:54.386Z,70.65
2022-11-16T08:44:21.855Z,69.35
2022-11-16T08:46:49.341Z,65.05
2022-11-16T08:49:16.817Z,58.58
2022-11-16T08:51:44.282Z,57.72
2022-11-16T08:54:13.095Z,57.50
2022-11-16T08:56:40.541Z,62.08
2022-11-16T08:59:07.987Z,62.35
2022-11-16T09:01:35.449Z,57.63
2022-11-16T09:04:02.959Z,64.25
2022-11-16T09:06:30.649Z,64.70
2022-11-16T09:08:58.656Z,55.10
2022-11-16T09:11:27.546Z,59.72
2022-11-16T09:13:55.723Z,59.97
2022-11-16T09:16:23.742Z,56.10
2022-11-16T09:18:51.798Z,51.83
2022-11-16T09:21:20.349Z,51.33
2022-11-16T09:23:48.040Z,60.80
2022-11-16T09:26:15.578Z,57.97
2022-11-16T09:28:44.431Z,49.63
2022-11-16T09:31:11.895Z,57.80
2022-11-16T09:33:39.415Z,44.78
2022-11-16T09:36:08.025Z,46.47
2022-11-16T09:38:55.722Z,46.00
2022-11-16T09:41:32.784Z,41.28
2022-11-16T09:44:05.076Z,40.10
2022-11-16T09:46:34.670Z,36.58
2022-11-16T09:49:13.940Z,36.92
2022-11-16T09:51:45.050Z,29.95
2022-11-16T09:54:14.769Z,27.02
2022-11-16T09:56:43.061Z,26.35
2022-11-16T09:59:18.236Z,21.92
2022-11-16T10:01:48.795Z,22.50
2022-11-16T10:04:19.068Z,24.55
2022-11-16T10:06:48.580Z,20.48
2022-11-16T10:09:16.233Z,26.20
2022-11-16T10:11:59.844Z,23.83
2022-11-16T10:14:45.100Z,22.85
2022-11-16T10:17:18.620Z,24.83
2022-11-16T10:19:50.633Z,27.33
2022-11-16T10:22:27.272Z,25.05
2022-11-16T10:24:57.880Z,29.10
2022-11-16T10:27:44.442Z,28.30
2022-11-16T10:30:15.605Z,26.75
2022-11-16T10:32:46.932Z,24.65
2022-11-16T10:35:17.132Z,31.35
2022-11-16T10:37:46.371Z,31.38
2022-11-16T10:40:18.944Z,27.75
2022-11-16T10:42:47.833Z,25.63
2022-11-16T10:45:20.569Z,29.40
2022-11-16T10:47:51.923Z,26.77
2022-11-16T10:50:27.178Z,25.85
2022-11-16T10:52:54.612Z,26.27
2022-11-16T10:55:22.771Z,24.13
2022-11-16T10:57:54.675Z,27.95
2022-11-16T11:00:34.923Z,26.30
2022-11-16T11:03:02.395Z,23.98
2022-11-16T11:05:30.342Z,25.38
2022-11-16T11:08:02.301Z,23.83
2022-11-16T11:10:31.483Z,26.77
2022-11-16T11:13:03.346Z,25.73
2022-11-16T11:15:30.833Z,28.85
2022-11-16T11:18:13.251Z,24.80
2022-11-16T11:20:45.041Z,25.38
2022-11-16T11:23:14.785Z,26.65
2022-11-16T11:25:49.387Z,28.10
2022-11-16T11:28:19.729Z,24.23
2022-11-16T11:30:53.120Z,22.75
2022-11-16T11:33:23.766Z,24.15
2022-11-16T11:35:58.130Z,23.52
2022-11-16T11:38:26.457Z,23.02
2022-11-16T11:40:57.243Z,23.70
2022-11-16T11:43:25.494Z,22.63
2022-11-16T11:45:55.382Z,23.23
2022-11-16T11:48:30.716Z,25.45
2022-11-16T11:50:59.920Z,26.08
2022-11-16T11:53:38.535Z,25.85
2022-11-16T11:56:06.555Z,23.50
2022-11-16T11:58:35.607Z,25.45
2022-11-16T12:01:10.365Z,30.42
2022-11-16T12:03:46.022Z,26.52
2022-11-16T12:06:20.225Z,27.63
2022-11-16T12:08:54.161Z,30.33
2022-11-16T12:11:27.886Z,31.52
2022-11-16T12:14:03.483Z,25.63
2022-11-16T12:16:34.909Z,28.67
2022-11-16T12:19:14.491Z,31.42
2022-11-16T12:21:47.629Z,29.27
2022-11-16T12:24:21.097Z,26.75
2022-11-16T12:26:52.341Z,31.70
2022-11-16T12:31:57.350Z,27.80
2022-11-16T12:34:31.586Z,29.83
2022-11-16T12:37:02.065Z,46.05
2022-11-16T12:39:34.798Z,29.55
2022-11-16T12:42:15.857Z,27.25
2022-11-16T12:44:58.201Z,38.85
2022-11-16T12:47:32.676Z,30.38
2022-11-16T12:50:19.584Z,28.60
2022-11-16T12:52:59.616Z,26.75
2022-11-16T12:55:31.358Z,28.30
2022-11-16T12:58:05.963Z,27.52
2022-11-16T13:00:39.626Z,26.80
2022-11-16T13:03:14.709Z,25.70
2022-11-16T13:05:50.867Z,28.15
2022-11-16T13:08:22.218Z,28.50
2022-11-16T13:10:51.703Z,23.88
2022-11-16T13:13:39.066Z,24.42
2022-11-16T13:16:07.723Z,27.10
2022-11-16T13:18:38.694Z,28.52
2022-11-16T13:21:12.050Z,25.67
2022-11-16T13:23:45.358Z,24.85
2022-11-16T13:26:16.129Z,25.13
2022-11-16T13:28:46.620Z,28.65
2022-11-16T13:31:18.188Z,25.45
2022-11-16T13:33:50.744Z,24.10
2022-11-16T13:36:39.274Z,24.10
2022-11-16T13:39:08.818Z,20.88
2022-11-16T13:41:37.716Z,23.35
2022-11-16T13:44:07.052Z,22.45
2022-11-16T13:46:55.427Z,20.25
2022-11-16T13:49:26.178Z,24.33
2022-11-16T13:51:55.440Z,27.67
2022-11-16T13:54:45.055Z,24.02
2022-11-16T13:57:21.861Z,35.35
2022-11-16T13:59:50.403Z,24.08
2022-11-16T14:02:31.358Z,23.17
2022-11-16T14:04:59.871Z,21.05
2022-11-16T14:07:40.421Z,24.10
2022-11-16T14:10:10.060Z,20.73
2022-11-16T14:12:58.491Z,19.83
2022-11-16T14:15:27.248Z,22.42
2022-11-16T14:17:57.549Z,23.65
2022-11-16T14:20:44.636Z,22.45
2022-11-16T14:23:20.893Z,21.05
2022-11-16T14:25:52.713Z,20.10
2022-11-16T14:28:38.166Z,20.30
2022-11-16T14:31:08.490Z,21.95
2022-11-16T14:33:37.331Z,19.90
2022-11-16T14:36:07.203Z,19.40
2022-11-16T14:38:36.052Z,18.92
2022-11-16T14:41:06.427Z,19.30
2022-11-16T14:43:36.848Z,20.42
2022-11-16T14:46:06.997Z,19.70
2022-11-16T14:48:34.949Z,18.90
2022-11-16T14:51:07.514Z,18.67
2022-11-16T14:53:36.323Z,20.45
2022-11-16T14:56:09.772Z,20.55
2022-11-16T14:58:37.766Z,19.35
2022-11-16T15:01:06.674Z,18.48
2022-11-16T15:03:35.415Z,18.10
2022-11-16T15:06:03.899Z,21.90
2022-11-16T15:08:33.074Z,21.40
2022-11-16T15:11:00.837Z,19.48
2022-11-16T15:13:29.713Z,19.63
2022-11-16T15:16:10.653Z,21.02
2022-11-16T15:18:38.120Z,20.17
2022-11-16T15:21:06.261Z,18.88
2022-11-16T15:23:34.107Z,21.45
2022-11-16T15:26:03.090Z,21.25
2022-11-16T15:28:32.834Z,20.13
2022-11-16T15:31:01.629Z,16.45
2022-11-16T15:33:30.732Z,20.67
2022-11-16T15:35:58.738Z,19.45
2022-11-16T15:38:27.182Z,20.67
2022-11-16T15:40:55.734Z,17.92
2022-11-16T15:43:24.940Z,18.67
2022-11-16T15:45:53.921Z,18.58
2022-11-16T15:48:22.719Z,21.20
2022-11-16T15:51:03.034Z,20.40
2022-11-16T15:53:36.357Z,21.25
2022-11-16T15:56:04.925Z,19.30
2022-11-16T15:58:33.422Z,15.40
2022-11-16T16:01:02.722Z,15.75
2022-11-16T16:03:32.926Z,17.80
2022-11-16T16:06:00.747Z,17.90
2022-11-16T16:08:32.641Z,18.25
2022-11-16T16:11:00.876Z,21.27
2022-11-16T16:13:30.221Z,17.30
2022-11-16T16:16:16.433Z,16.83
2022-11-16T16:18:46.050Z,17.13
2022-11-16T16:21:14.824Z,15.73
2022-11-16T16:23:46.525Z,14.75
2022-11-16T16:26:14.259Z,15.52
2022-11-16T16:28:41.861Z,16.27
2022-11-16T16:31:09.789Z,15.05
2022-11-16T16:33:37.820Z,16.05
2022-11-16T16:36:07.364Z,14.63
2022-11-16T16:38:34.865Z,16.08
2022-11-16T16:41:03.408Z,14.77
2022-11-16T16:43:31.418Z,14.95
2022-11-16T16:46:01.175Z,15.05
2022-11-16T16:48:28.661Z,16.95
2022-11-16T16:50:56.170Z,17.98
2022-11-16T16:53:25.024Z,15.85
2022-11-16T16:55:52.613Z,17.85
2022-11-16T16:58:20.089Z,16.33
2022-11-16T17:00:47.645Z,13.93
2022-11-16T17:03:15.204Z,17.55
2022-11-16T17:05:42.687Z,13.25
2022-11-16T17:08:10.147Z,14.10
2022-11-16T17:10:39.572Z,14.73
2022-11-16T17:13:07.015Z,16.85
2022-11-16T17:15:34.489Z,15.07
2022-11-16T17:18:01.954Z,13.13
2022-11-16T17:20:29.415Z,14.63
2022-11-16T17:22:57.055Z,13.30
2022-11-16T17:25:24.614Z,15.35
2022-11-16T17:27:53.421Z,13.20
2022-11-16T17:30:21.004Z,15.02
2022-11-16T17:32:48.457Z,13.57
2022-11-16T17:35:16.047Z,14.27
2022-11-16T17:37:43.520Z,16.52
2022-11-16T17:40:11.445Z,12.95
2022-11-16T17:42:38.901Z,15.65
2022-11-16T17:45:08.161Z,14.70
2022-11-16T17:47:35.626Z,12.60
2022-11-16T17:50:04.178Z,15.23
2022-11-16T17:52:31.753Z,13.43
2022-11-16T17:54:59.293Z,12.30
2022-11-16T17:57:26.803Z,13.30
2022-11-16T17:59:54.330Z,12.60
2022-11-16T18:02:23.205Z,12.63
2022-11-16T18:04:51.392Z,13.57
2022-11-16T18:07:19.228Z,11.00
2022-11-16T18:09:46.753Z,11.10
2022-11-16T18:12:14.241Z,11.70
2022-11-16T18:14:42.510Z,11.35
2022-11-16T18:17:10.158Z,12.50
2022-11-16T18:19:39.032Z,10.38
2022-11-16T18:22:06.522Z,11.30
2022-11-16T18:24:34.058Z,12.35
2022-11-16T18:27:01.491Z,10.93
2022-11-16T18:29:28.977Z,9.07
2022-11-16T18:31:56.400Z,12.20
2022-11-16T18:34:24.151Z,10.68
2022-11-16T18:36:52.954Z,9.00
2022-11-16T18:39:20.462Z,9.95
2022-11-16T18:41:54.479Z,11.45
2022-11-16T18:44:22.705Z,10.70
2022-11-16T18:46:50.198Z,11.60
2022-11-16T18:49:17.725Z,9.00
2022-11-16T18:51:45.178Z,11.27
2022-11-16T18:54:14.033Z,10.52
2022-11-16T18:56:41.509Z,10.55
2022-11-16T18:59:08.981Z,9.55
2022-11-16T19:01:36.564Z,10.27
2022-11-16T19:04:04.138Z,12.30
2022-11-16T19:06:32.403Z,10.60
2022-11-16T19:09:00.126Z,10.43
2022-11-16T19:11:29.263Z,10.40
2022-11-16T19:13:57.454Z,8.32
2022-11-16T19:16:25.439Z,8.63
2022-11-16T19:18:53.316Z,9.07
2022-11-16T19:21:21.826Z,10.23
2022-11-16T19:23:50.162Z,10.43
2022-11-16T19:26:18.405Z,8.50
2022-11-16T19:28:48.072Z,8.93
2022-11-16T19:31:16.162Z,9.75
2022-11-16T19:33:44.293Z,10.38
2022-11-16T19:36:12.707Z,8.75
2022-11-16T19:38:40.475Z,8.43
2022-11-16T19:41:08.382Z,10.27
2022-11-16T19:43:36.255Z,9.70
2022-11-16T19:46:06.265Z,8.63
2022-11-16T19:48:33.847Z,8.60
2022-11-16T19:51:04.933Z,9.68
2022-11-16T19:53:33.558Z,7.78
2022-11-16T19:56:01.247Z,8.75
2022-11-16T19:58:28.740Z,8.93
2022-11-16T20:01:01.025Z,9.30
2022-11-16T20:03:30.534Z,9.02
2022-11-16T20:06:04.757Z,9.70
2022-11-16T20:08:32.181Z,8.40
2022-11-16T20:10:59.738Z,10.32
2022-11-16T20:13:27.230Z,9.38
2022-11-16T20:15:54.711Z,8.00
2022-11-16T20:18:22.170Z,8.25
2022-11-16T20:20:50.966Z,10.70
2022-11-16T20:23:19.397Z,7.68
2022-11-16T20:25:46.873Z,8.57
2022-11-16T20:28:14.325Z,9.40
2022-11-16T20:30:46.214Z,9.50
2022-11-16T20:33:14.584Z,9.90
2022-11-16T20:35:42.058Z,9.43
2022-11-16T20:38:10.890Z,10.68
2022-11-16T20:40:38.344Z,8.98
2022-11-16T20:43:05.834Z,7.75
2022-11-16T20:45:33.804Z,7.25
2022-11-16T20:48:01.284Z,8.35
2022-11-16T20:50:28.750Z,9.57
2022-11-16T20:52:56.216Z,7.47
2022-11-16T20:55:25.067Z,8.18
2022-11-16T20:57:52.531Z,7.30
2022-11-16T21:00:20.270Z,6.75
2022-11-16T21:02:47.789Z,7.57
2022-11-16T21:05:15.266Z,7.55
2022-11-16T21:07:43.845Z,7.22
2022-11-16T21:10:20.664Z,8.27
2022-11-16T21:13:07.592Z,9.55
2022-11-16T21:15:35.048Z,11.50
2022-11-16T21:18:02.578Z,6.95
2022-11-16T21:20:30.076Z,10.02
2022-11-16T21:22:57.587Z,8.15
2022-11-16T21:25:25.118Z,8.68
2022-11-16T21:27:53.956Z,8.25
2022-11-16T21:30:21.641Z,9.98
2022-11-16T21:32:49.790Z,7.75
2022-11-16T21:35:17.808Z,8.23
2022-11-16T21:37:45.282Z,7.70
2022-11-16T21:40:13.513Z,8.07
2022-11-16T21:42:41.013Z,9.48
2022-11-16T21:45:10.818Z,10.02
2022-11-16T21:47:38.296Z,8.77
2022-11-16T21:50:30.757Z,9.63
2022-11-16T21:52:53.722Z,7.85
2022-11-16T21:55:21.213Z,7.70
2022-11-16T21:57:48.898Z,8.30
2022-11-16T22:00:18.476Z,8.35
2022-11-16T22:02:45.922Z,9.88
2022-11-16T22:05:30.680Z,8.45
2022-11-16T22:07:58.148Z,9.15
2022-11-16T22:10:25.640Z,10.00
2022-11-16T22:12:53.106Z,8.18
2022-11-16T22:15:21.944Z,10.02
2022-11-16T22:17:49.448Z,8.65
2022-11-16T22:20:17.274Z,8.10
2022-11-16T22:22:44.714Z,7.70
2022-11-16T22:25:13.788Z,8.63
2022-11-16T22:28:05.669Z,8.57
2022-11-16T22:30:30.446Z,9.00
2022-11-16T22:32:57.928Z,9.38
2022-11-16T22:35:25.453Z,8.68
2022-11-16T22:37:52.986Z,6.97
2022-11-16T22:40:20.505Z,8.43
2022-11-16T22:42:47.979Z,8.18
2022-11-16T22:45:15.423Z,8.02
2022-11-16T22:47:44.286Z,8.35
2022-11-16T22:50:11.757Z,7.47
2022-11-16T22:52:39.293Z,7.03
2022-11-16T22:55:07.196Z,8.40
2022-11-16T22:57:34.714Z,7.72
2022-11-16T23:00:02.905Z,8.38
2022-11-16T23:02:30.367Z,7.57
2022-11-16T23:04:59.169Z,8.13
2022-11-16T23:07:26.863Z,10.23
2022-11-16T23:09:54.347Z,8.43
2022-11-16T23:12:39.448Z,9.15
2022-11-16T23:15:26.737Z,9.43
2022-11-16T23:17:54.234Z,8.50
2022-11-16T23:20:40.736Z,8.93
2022-11-16T23:23:31.576Z,9.93
2022-11-16T23:28:44.147Z,9.35
2022-11-16T23:31:11.664Z,9.80
2022-11-16T23:33:45.016Z,9.88
2022-11-16T23:36:13.793Z,11.52
2022-11-16T23:38:41.276Z,10.52
2022-11-16T23:41:26.437Z,9.98
2022-11-16T23:44:02.542Z,12.07
2022-11-16T23:46:31.115Z,10.95
2022-11-16T23:48:58.943Z,9.13
2022-11-16T23:51:28.176Z,10.32
2022-11-16T23:53:55.893Z,9.55
2022-11-16T23:56:24.106Z,9.73
2022-11-16T23:58:51.585Z,11.27
